Private Wetterstation Sandau
Wetterdaten: Samstag, 14.04.2012
Datum Zeit Temp. A. Feuchte A. Luftdruck Regen Wind Richtung Richtung Taupunkt Windchill
14.04.2012 00:01 5,5 C 77 % 1006,6 hPa 0,0 l/m 0,0 km/h (0 Bft) N-NW 337 1,8 C 5,5 C
14.04.2012 00:06 5,4 C 77 % 1006,5 hPa 0,0 l/m 0,0 km/h (0 Bft) SO 135 1,7 C 5,4 C
14.04.2012 00:11 5,3 C 77 % 1006,4 hPa 0,0 l/m 0,0 km/h (0 Bft) SO 135 1,6 C 5,3 C
14.04.2012 00:16 5,3 C 77 % 1006,4 hPa 0,0 l/m 0,0 km/h (0 Bft) SO 135 1,6 C 5,3 C
14.04.2012 00:21 5,1 C 78 % 1006,4 hPa 0,0 l/m 0,0 km/h (0 Bft) SO 135 1,6 C 5,1 C
14.04.2012 00:26 5,0 C 78 % 1006,4 hPa 0,0 l/m 0,0 km/h (0 Bft) SO 135 1,5 C 5,0 C
14.04.2012 00:31 4,9 C 78 % 1006,4 hPa 0,0 l/m 0,0 km/h (0 Bft) SO 135 1,4 C 4,9 C
14.04.2012 00:36 4,9 C 79 % 1006,5 hPa 0,0 l/m 0,0 km/h (0 Bft) SO 135 1,6 C 4,9 C
14.04.2012 00:41 4,8 C 79 % 1006,5 hPa 0,0 l/m 0,0 km/h (0 Bft) SO 135 1,5 C 4,8 C
14.04.2012 00:46 4,8 C 79 % 1006,6 hPa 0,0 l/m 0,0 km/h (0 Bft) SO 135 1,5 C 4,8 C
14.04.2012 00:51 4,8 C 79 % 1006,3 hPa 0,0 l/m 0,0 km/h (0 Bft) SO 135 1,5 C 4,8 C
14.04.2012 00:56 4,8 C 79 % 1006,5 hPa 0,0 l/m 0,0 km/h (0 Bft) SO 135 1,5 C 4,8 C
14.04.2012 01:01 4,8 C 79 % 1006,5 hPa 0,0 l/m 0,0 km/h (0 Bft) SO 135 1,5 C 4,8 C
14.04.2012 01:06 4,6 C 79 % 1006,5 hPa 0,0 l/m 0,0 km/h (0 Bft) SO 135 1,3 C 4,6 C
14.04.2012 01:11 4,5 C 79 % 1006,6 hPa 0,0 l/m 0,0 km/h (0 Bft) SO 135 1,2 C 4,5 C
14.04.2012 01:16 4,4 C 80 % 1006,3 hPa 0,0 l/m 0,0 km/h (0 Bft) SO 135 1,3 C 4,4 C
14.04.2012 01:21 4,4 C 80 % 1006,4 hPa 0,0 l/m 0,0 km/h (0 Bft) SO 135 1,3 C 4,4 C
14.04.2012 01:26 4,4 C 80 % 1006,4 hPa 0,0 l/m 0,0 km/h (0 Bft) SO 135 1,3 C 4,4 C
14.04.2012 01:31 4,3 C 80 % 1006,3 hPa 0,0 l/m 0,0 km/h (0 Bft) SO 135 1,2 C 4,3 C
14.04.2012 01:36 4,3 C 80 % 1006,5 hPa 0,0 l/m 0,0 km/h (0 Bft) SO 135 1,2 C 4,3 C
14.04.2012 01:41 4,3 C 80 % 1006,4 hPa 0,0 l/m 0,0 km/h (0 Bft) SO 135 1,2 C 4,3 C
14.04.2012 01:46 4,3 C 80 % 1006,3 hPa 0,0 l/m 0,0 km/h (0 Bft) SO 135 1,2 C 4,3 C
14.04.2012 01:51 4,2 C 80 % 1006,3 hPa 0,0 l/m 0,0 km/h (0 Bft) SO 135 1,1 C 4,2 C
14.04.2012 01:56 4,2 C 80 % 1006,2 hPa 0,0 l/m 0,0 km/h (0 Bft) SO 135 1,1 C 4,2 C
14.04.2012 02:01 4,1 C 80 % 1006,2 hPa 0,0 l/m 0,0 km/h (0 Bft) SO 135 1,0 C 4,1 C
14.04.2012 02:06 4,1 C 80 % 1006,4 hPa 0,0 l/m 0,0 km/h (0 Bft) SO 135 1,0 C 4,1 C
14.04.2012 02:11 3,9 C 81 % 1006,4 hPa 0,0 l/m 0,0 km/h (0 Bft) SO 135 0,9 C 3,9 C
14.04.2012 02:16 3,8 C 81 % 1006,2 hPa 0,0 l/m 0,0 km/h (0 Bft) SO 135 0,8 C 3,8 C
14.04.2012 02:21 3,6 C 80 % 1006,3 hPa 0,0 l/m 0,0 km/h (0 Bft) SO 135 0,5 C 3,6 C
14.04.2012 02:26 3,5 C 81 % 1006,3 hPa 0,0 l/m 0,0 km/h (0 Bft) SO 135 0,6 C 3,5 C
14.04.2012 02:31 3,5 C 81 % 1006,2 hPa 0,0 l/m 0,0 km/h (0 Bft) SO 135 0,6 C 3,5 C
14.04.2012 02:36 3,4 C 81 % 1006,2 hPa 0,0 l/m 0,0 km/h (0 Bft) SO 135 0,5 C 3,4 C
14.04.2012 02:41 3,4 C 81 % 1006,4 hPa 0,0 l/m 0,0 km/h (0 Bft) SO 135 0,5 C 3,4 C
14.04.2012 02:46 3,4 C 81 % 1006,4 hPa 0,0 l/m 0,0 km/h (0 Bft) SO 135 0,5 C 3,4 C
14.04.2012 02:51 3,4 C 81 % 1006,3 hPa 0,0 l/m 0,0 km/h (0 Bft) SO 135 0,5 C 3,4 C
14.04.2012 02:56 3,5 C 81 % 1006,3 hPa 0,0 l/m 2,2 km/h (1 Bft) SO 135 0,6 C 3,5 C
14.04.2012 03:01 3,5 C 81 % 1006,3 hPa 0,0 l/m 0,0 km/h (0 Bft) SO 135 0,6 C 3,5 C
14.04.2012 03:06 3,5 C 81 % 1006,4 hPa 0,0 l/m 0,0 km/h (0 Bft) SO 135 0,6 C 3,5 C
14.04.2012 03:11 3,3 C 81 % 1006,4 hPa 0,0 l/m 0,0 km/h (0 Bft) SO 135 0,4 C 3,3 C
14.04.2012 03:16 3,3 C 81 % 1006,3 hPa 0,0 l/m 0,0 km/h (0 Bft) SO 135 0,4 C 3,3 C
14.04.2012 03:21 3,3 C 81 % 1006,3 hPa 0,0 l/m 0,0 km/h (0 Bft) SO 135 0,4 C 3,3 C
14.04.2012 03:26 3,2 C 81 % 1006,4 hPa 0,0 l/m 0,0 km/h (0 Bft) SO 135 0,3 C 3,2 C
14.04.2012 03:31 3,1 C 81 % 1006,4 hPa 0,0 l/m 0,0 km/h (0 Bft) SO 135 0,2 C 3,1 C
14.04.2012 03:36 3,0 C 81 % 1006,3 hPa 0,0 l/m 1,1 km/h (1 Bft) SO 135 0,1 C 3,0 C
14.04.2012 03:41 2,9 C 81 % 1006,3 hPa 0,0 l/m 0,0 km/h (0 Bft) SO 135 -0,0 C 2,9 C
14.04.2012 03:46 2,9 C 81 % 1006,4 hPa 0,0 l/m 1,1 km/h (1 Bft) SO 135 -0,0 C 2,9 C
14.04.2012 03:51 2,9 C 82 % 1006,5 hPa 0,0 l/m 2,5 km/h (1 Bft) S-SW 202 0,1 C 2,9 C
14.04.2012 03:56 2,9 C 82 % 1006,6 hPa 0,0 l/m 0,0 km/h (0 Bft) S-SW 202 0,1 C 2,9 C
14.04.2012 04:01 2,9 C 82 % 1006,5 hPa 0,0 l/m 0,0 km/h (0 Bft) S 180 0,1 C 2,9 C
14.04.2012 04:06 2,9 C 82 % 1006,5 hPa 0,0 l/m 0,0 km/h (0 Bft) S 180 0,1 C 2,9 C
14.04.2012 04:11 2,8 C 82 % 1006,5 hPa 0,0 l/m 0,0 km/h (0 Bft) S 180 0,0 C 2,8 C
14.04.2012 04:16 2,8 C 82 % 1006,6 hPa 0,0 l/m 0,0 km/h (0 Bft) S 180 0,0 C 2,8 C
14.04.2012 04:21 2,7 C 82 % 1006,7 hPa 0,0 l/m 1,8 km/h (1 Bft) S-SO 157 -0,1 C 2,7 C
14.04.2012 04:26 2,6 C 82 % 1006,5 hPa 0,0 l/m 0,0 km/h (0 Bft) S-SO 157 -0,2 C 2,6 C
14.04.2012 04:31 2,6 C 83 % 1006,4 hPa 0,0 l/m 0,0 km/h (0 Bft) S-SO 157 0,0 C 2,6 C
14.04.2012 04:36 2,6 C 83 % 1006,3 hPa 0,0 l/m 3,6 km/h (1 Bft) O 90 0,0 C 2,6 C
14.04.2012 04:41 2,6 C 83 % 1006,4 hPa 0,0 l/m 0,0 km/h (0 Bft) O-SO 112 0,0 C 2,6 C
14.04.2012 04:46 2,6 C 83 % 1006,5 hPa 0,0 l/m 0,0 km/h (0 Bft) O 90 0,0 C 2,6 C
14.04.2012 04:51 2,6 C 83 % 1006,6 hPa 0,0 l/m 0,0 km/h (0 Bft) O 90 0,0 C 2,6 C
14.04.2012 04:56 2,6 C 83 % 1006,6 hPa 0,0 l/m 0,0 km/h (0 Bft) O-SO 112 0,0 C 2,6 C
14.04.2012 05:01 2,5 C 83 % 1006,5 hPa 0,0 l/m 0,0 km/h (0 Bft) O 90 -0,1 C 2,5 C
14.04.2012 05:06 2,5 C 83 % 1006,6 hPa 0,0 l/m 2,5 km/h (1 Bft) O 90 -0,1 C 2,5 C
14.04.2012 05:11 2,4 C 83 % 1006,6 hPa 0,0 l/m 0,0 km/h (0 Bft) SO 135 -0,2 C 2,4 C
14.04.2012 05:16 2,3 C 83 % 1006,6 hPa 0,0 l/m 0,0 km/h (0 Bft) O 90 -0,3 C 2,3 C
14.04.2012 05:21 2,3 C 83 % 1006,7 hPa 0,0 l/m 0,0 km/h (0 Bft) O 90 -0,3 C 2,3 C
14.04.2012 05:26 2,1 C 83 % 1006,6 hPa 0,0 l/m 0,0 km/h (0 Bft) O 90 -0,5 C 2,1 C
14.04.2012 05:31 2,1 C 83 % 1006,4 hPa 0,0 l/m 0,0 km/h (0 Bft) O 90 -0,5 C 2,1 C
14.04.2012 05:36 1,9 C 83 % 1006,4 hPa 0,0 l/m 1,4 km/h (1 Bft) O 90 -0,7 C 1,9 C
14.04.2012 05:41 1,9 C 84 % 1006,5 hPa 0,0 l/m 0,0 km/h (0 Bft) O-SO 112 -0,5 C 1,9 C
14.04.2012 05:46 1,9 C 84 % 1006,5 hPa 0,0 l/m 2,9 km/h (1 Bft) O-SO 112 -0,5 C 1,9 C
14.04.2012 05:51 1,9 C 84 % 1006,4 hPa 0,0 l/m 4,0 km/h (1 Bft) O 90 -0,5 C 1,9 C
14.04.2012 05:56 1,8 C 84 % 1006,4 hPa 0,0 l/m 5,0 km/h (1 Bft) O 90 -0,6 C 0,5 C
14.04.2012 06:01 1,6 C 84 % 1006,3 hPa 0,0 l/m 4,0 km/h (1 Bft) O-SO 112 -0,8 C 1,6 C
14.04.2012 06:06 1,5 C 84 % 1006,4 hPa 0,0 l/m 3,6 km/h (1 Bft) O 90 -0,9 C 1,5 C
14.04.2012 06:11 1,5 C 85 % 1006,5 hPa 0,0 l/m 5,0 km/h (1 Bft) O-SO 112 -0,7 C 0,1 C
14.04.2012 06:16 1,5 C 85 % 1006,4 hPa 0,0 l/m 3,6 km/h (1 Bft) O 90 -0,7 C 1,5 C
14.04.2012 06:21 1,5 C 85 % 1006,4 hPa 0,0 l/m 5,0 km/h (1 Bft) O-SO 112 -0,7 C 0,1 C
14.04.2012 06:26 1,6 C 85 % 1006,5 hPa 0,0 l/m 4,0 km/h (1 Bft) O 90 -0,6 C 1,6 C
14.04.2012 06:31 1,6 C 85 % 1006,6 hPa 0,0 l/m 5,4 km/h (1 Bft) O 90 -0,6 C 0,1 C
14.04.2012 06:36 1,6 C 85 % 1006,6 hPa 0,0 l/m 0,0 km/h (0 Bft) O-SO 112 -0,6 C 1,6 C
14.04.2012 06:41 1,8 C 86 % 1006,5 hPa 0,0 l/m 1,1 km/h (1 Bft) O 90 -0,3 C 1,8 C
14.04.2012 06:46 1,8 C 86 % 1006,5 hPa 0,0 l/m 4,0 km/h (1 Bft) O-SO 112 -0,3 C 1,8 C
14.04.2012 06:51 1,9 C 86 % 1006,5 hPa 0,0 l/m 0,0 km/h (0 Bft) O-SO 112 -0,2 C 1,9 C
14.04.2012 06:56 1,9 C 86 % 1006,5 hPa 0,0 l/m 0,0 km/h (0 Bft) O-SO 112 -0,2 C 1,9 C
14.04.2012 07:01 2,1 C 86 % 1006,6 hPa 0,0 l/m 0,0 km/h (0 Bft) O 90 0,0 C 2,1 C
14.04.2012 07:06 2,3 C 86 % 1006,8 hPa 0,0 l/m 0,0 km/h (0 Bft) O-NO 67 0,2 C 2,3 C
14.04.2012 07:11 2,3 C 86 % 1006,7 hPa 0,0 l/m 2,9 km/h (1 Bft) O 90 0,2 C 2,3 C
14.04.2012 07:16 2,4 C 86 % 1006,7 hPa 0,0 l/m 1,8 km/h (1 Bft) O-SO 112 0,3 C 2,4 C
14.04.2012 07:21 2,4 C 86 % 1006,7 hPa 0,0 l/m 2,5 km/h (1 Bft) O-NO 67 0,3 C 2,4 C
14.04.2012 07:26 2,4 C 86 % 1006,8 hPa 0,0 l/m 1,1 km/h (1 Bft) O 90 0,3 C 2,4 C
14.04.2012 07:31 2,6 C 86 % 1006,8 hPa 0,0 l/m 0,0 km/h (0 Bft) O-SO 112 0,5 C 2,6 C
14.04.2012 07:36 2,7 C 86 % 1006,8 hPa 0,0 l/m 1,1 km/h (1 Bft) O-NO 67 0,6 C 2,7 C
14.04.2012 07:41 2,8 C 86 % 1006,9 hPa 0,0 l/m 3,2 km/h (1 Bft) O-NO 67 0,7 C 2,8 C
14.04.2012 07:46 2,8 C 86 % 1007,0 hPa 0,0 l/m 5,8 km/h (2 Bft) O-SO 112 0,7 C 1,3 C
14.04.2012 07:51 2,9 C 86 % 1006,8 hPa 0,0 l/m 4,3 km/h (1 Bft) O 90 0,8 C 2,9 C
14.04.2012 07:56 3,2 C 87 % 1006,9 hPa 0,0 l/m 6,1 km/h (2 Bft) O 90 1,2 C 1,6 C
14.04.2012 08:01 3,4 C 87 % 1006,9 hPa 0,0 l/m 3,2 km/h (1 Bft) SO 135 1,4 C 3,4 C
14.04.2012 08:06 3,6 C 86 % 1007,0 hPa 0,0 l/m 1,1 km/h (1 Bft) SO 135 1,5 C 3,6 C
14.04.2012 08:11 3,8 C 86 % 1007,1 hPa 0,0 l/m 1,8 km/h (1 Bft) SO 135 1,7 C 3,8 C
14.04.2012 08:16 3,9 C 86 % 1007,1 hPa 0,0 l/m 1,1 km/h (1 Bft) O-SO 112 1,8 C 3,9 C
14.04.2012 08:21 4,1 C 86 % 1007,0 hPa 0,0 l/m 3,2 km/h (1 Bft) O-SO 112 2,0 C 4,1 C
14.04.2012 08:26 4,4 C 86 % 1007,0 hPa 0,0 l/m 0,0 km/h (0 Bft) SO 135 2,3 C 4,4 C
14.04.2012 08:31 4,7 C 86 % 1007,0 hPa 0,0 l/m 2,9 km/h (1 Bft) SO 135 2,6 C 4,7 C
14.04.2012 08:36 4,9 C 85 % 1007,0 hPa 0,0 l/m 1,4 km/h (1 Bft) SO 135 2,6 C 4,9 C
14.04.2012 08:41 5,3 C 85 % 1007,0 hPa 0,0 l/m 1,8 km/h (1 Bft) O-SO 112 3,0 C 5,3 C
14.04.2012 08:46 5,5 C 85 % 1007,0 hPa 0,0 l/m 6,5 km/h (2 Bft) O-SO 112 3,2 C 4,1 C
14.04.2012 08:51 5,8 C 84 % 1007,2 hPa 0,0 l/m 3,6 km/h (1 Bft) O-NO 67 3,3 C 5,8 C
14.04.2012 08:56 6,0 C 84 % 1007,2 hPa 0,0 l/m 2,5 km/h (1 Bft) O-SO 112 3,5 C 6,0 C
14.04.2012 09:01 6,2 C 83 % 1007,0 hPa 0,0 l/m 2,2 km/h (1 Bft) O 90 3,5 C 6,2 C
14.04.2012 09:06 6,4 C 82 % 1007,1 hPa 0,0 l/m 0,0 km/h (0 Bft) O 90 3,6 C 6,4 C
14.04.2012 09:11 6,7 C 82 % 1006,9 hPa 0,0 l/m 3,2 km/h (1 Bft) O-NO 67 3,8 C 6,7 C
14.04.2012 09:16 6,9 C 81 % 1007,0 hPa 0,0 l/m 0,0 km/h (0 Bft) O 90 3,9 C 6,9 C
14.04.2012 09:21 7,2 C 81 % 1007,0 hPa 0,0 l/m 0,0 km/h (0 Bft) O-SO 112 4,2 C 7,2 C
14.04.2012 09:26 7,5 C 81 % 1007,3 hPa 0,0 l/m 4,0 km/h (1 Bft) SO 135 4,5 C 7,5 C
14.04.2012 09:31 7,9 C 80 % 1007,2 hPa 0,0 l/m 1,4 km/h (1 Bft) SO 135 4,7 C 7,9 C
14.04.2012 09:36 8,2 C 78 % 1007,2 hPa 0,0 l/m 0,0 km/h (0 Bft) SO 135 4,6 C 8,2 C
14.04.2012 09:41 8,6 C 78 % 1007,3 hPa 0,0 l/m 2,2 km/h (1 Bft) S-SO 157 5,0 C 8,6 C
14.04.2012 09:46 9,0 C 77 % 1007,3 hPa 0,0 l/m 2,5 km/h (1 Bft) SO 135 5,2 C 9,0 C
14.04.2012 09:51 9,4 C 76 % 1007,3 hPa 0,0 l/m 6,1 km/h (2 Bft) SO 135 5,4 C 8,8 C
14.04.2012 09:56 9,8 C 75 % 1007,3 hPa 0,0 l/m 3,2 km/h (1 Bft) O 90 5,6 C 9,8 C
14.04.2012 10:01 10,1 C 72 % 1007,2 hPa 0,0 l/m 3,6 km/h (1 Bft) O-SO 112 5,3 C 10,1 C
14.04.2012 10:06 10,1 C 71 % 1007,3 hPa 0,0 l/m 3,6 km/h (1 Bft) O 90 5,1 C 10,1 C
14.04.2012 10:11 10,2 C 70 % 1007,3 hPa 0,0 l/m 1,8 km/h (1 Bft) O-SO 112 5,0 C 10,2 C
14.04.2012 10:16 10,2 C 69 % 1007,2 hPa 0,0 l/m 1,8 km/h (1 Bft) NO 45 4,8 C 10,2 C
14.04.2012 10:21 10,3 C 69 % 1007,3 hPa 0,0 l/m 0,0 km/h (0 Bft) O-SO 112 4,9 C 10,3 C
14.04.2012 10:26 10,3 C 68 % 1007,3 hPa 0,0 l/m 3,6 km/h (1 Bft) S 180 4,7 C 10,3 C
14.04.2012 10:31 10,6 C 67 % 1007,1 hPa 0,0 l/m 0,0 km/h (0 Bft) W-NW 292 4,7 C 10,6 C
14.04.2012 10:36 10,8 C 66 % 1007,2 hPa 0,0 l/m 1,4 km/h (1 Bft) O-SO 112 4,7 C 10,8 C
14.04.2012 10:41 11,0 C 66 % 1007,1 hPa 0,0 l/m 1,8 km/h (1 Bft) O 90 4,9 C 11,0 C
14.04.2012 10:46 11,2 C 63 % 1007,2 hPa 0,0 l/m 1,4 km/h (1 Bft) SO 135 4,4 C 11,2 C
14.04.2012 10:51 11,3 C 63 % 1007,1 hPa 0,0 l/m 3,2 km/h (1 Bft) O-SO 112 4,5 C 11,3 C
14.04.2012 10:56 11,4 C 63 % 1007,3 hPa 0,0 l/m 4,7 km/h (1 Bft) NO 45 4,6 C 11,4 C
14.04.2012 11:01 11,5 C 61 % 1007,1 hPa 0,0 l/m 3,6 km/h (1 Bft) O-NO 67 4,2 C 11,5 C
14.04.2012 11:06 11,6 C 60 % 1007,2 hPa 0,0 l/m 4,0 km/h (1 Bft) O 90 4,1 C 11,6 C
14.04.2012 11:11 11,6 C 61 % 1007,2 hPa 0,0 l/m 6,5 km/h (2 Bft) O-SO 112 4,3 C 11,6 C
14.04.2012 11:16 11,6 C 60 % 1007,2 hPa 0,0 l/m 6,1 km/h (2 Bft) SO 135 4,1 C 11,6 C
14.04.2012 11:21 11,6 C 60 % 1007,2 hPa 0,0 l/m 9,7 km/h (2 Bft) O 90 4,1 C 11,6 C
14.04.2012 11:26 11,6 C 60 % 1007,3 hPa 0,0 l/m 3,6 km/h (1 Bft) O-SO 112 4,1 C 11,6 C
14.04.2012 11:31 11,5 C 59 % 1007,2 hPa 0,0 l/m 12,2 km/h (2 Bft) SO 135 3,8 C 11,5 C
14.04.2012 11:36 11,4 C 60 % 1007,1 hPa 0,0 l/m 0,0 km/h (0 Bft) O-SO 112 3,9 C 11,4 C
14.04.2012 11:41 11,6 C 60 % 1007,1 hPa 0,0 l/m 9,4 km/h (2 Bft) O-SO 112 4,1 C 11,6 C
14.04.2012 11:46 11,6 C 59 % 1007,1 hPa 0,0 l/m 3,2 km/h (1 Bft) O 90 3,9 C 11,6 C
14.04.2012 11:51 11,5 C 58 % 1007,0 hPa 0,0 l/m 1,4 km/h (1 Bft) SO 135 3,5 C 11,5 C
14.04.2012 11:56 11,5 C 59 % 1007,0 hPa 0,0 l/m 8,3 km/h (2 Bft) O 90 3,8 C 11,5 C
14.04.2012 12:01 11,4 C 58 % 1007,2 hPa 0,0 l/m 3,6 km/h (1 Bft) O 90 3,4 C 11,4 C
14.04.2012 12:06 11,4 C 58 % 1007,1 hPa 0,0 l/m 0,0 km/h (0 Bft) O-SO 112 3,4 C 11,4 C
14.04.2012 12:11 11,5 C 59 % 1007,0 hPa 0,0 l/m 2,2 km/h (1 Bft) SO 135 3,8 C 11,5 C
14.04.2012 12:16 11,5 C 58 % 1007,1 hPa 0,0 l/m 2,5 km/h (1 Bft) SO 135 3,5 C 11,5 C
14.04.2012 12:21 11,5 C 58 % 1007,0 hPa 0,0 l/m 3,2 km/h (1 Bft) O 90 3,5 C 11,5 C
14.04.2012 12:26 11,5 C 58 % 1007,0 hPa 0,0 l/m 1,8 km/h (1 Bft) O-SO 112 3,5 C 11,5 C
14.04.2012 12:31 11,4 C 58 % 1007,0 hPa 0,0 l/m 3,2 km/h (1 Bft) O 90 3,4 C 11,4 C
14.04.2012 12:36 11,5 C 58 % 1007,0 hPa 0,0 l/m 4,0 km/h (1 Bft) O 90 3,5 C 11,5 C
14.04.2012 12:41 11,5 C 58 % 1007,0 hPa 0,0 l/m 5,0 km/h (1 Bft) O-NO 67 3,5 C 11,5 C
14.04.2012 12:46 11,4 C 57 % 1007,0 hPa 0,0 l/m 2,2 km/h (1 Bft) O-NO 67 3,2 C 11,4 C
14.04.2012 12:51 11,4 C 58 % 1007,0 hPa 0,0 l/m 0,0 km/h (0 Bft) O-SO 112 3,4 C 11,4 C
14.04.2012 12:56 11,5 C 57 % 1007,0 hPa 0,0 l/m 1,8 km/h (1 Bft) O-SO 112 3,3 C 11,5 C
14.04.2012 13:01 11,6 C 58 % 1006,9 hPa 0,0 l/m 2,5 km/h (1 Bft) O 90 3,6 C 11,6 C
14.04.2012 13:06 11,7 C 58 % 1006,9 hPa 0,0 l/m 3,2 km/h (1 Bft) O 90 3,7 C 11,7 C
14.04.2012 13:11 11,8 C 57 % 1006,9 hPa 0,0 l/m 3,6 km/h (1 Bft) O-NO 67 3,6 C 11,8 C
14.04.2012 13:16 11,8 C 57 % 1006,9 hPa 0,0 l/m 0,0 km/h (0 Bft) N-NO 22 3,6 C 11,8 C
14.04.2012 13:21 11,8 C 57 % 1006,8 hPa 0,0 l/m 0,0 km/h (0 Bft) NO 45 3,6 C 11,8 C
14.04.2012 13:26 11,8 C 56 % 1006,9 hPa 0,0 l/m 4,7 km/h (1 Bft) NO 45 3,3 C 11,8 C
14.04.2012 13:31 11,9 C 56 % 1006,9 hPa 0,0 l/m 2,2 km/h (1 Bft) O 90 3,4 C 11,9 C
14.04.2012 13:36 11,9 C 56 % 1006,7 hPa 0,0 l/m 4,0 km/h (1 Bft) NO 45 3,4 C 11,9 C
14.04.2012 13:41 12,1 C 56 % 1006,8 hPa 0,0 l/m 2,5 km/h (1 Bft) O 90 3,6 C 12,1 C
14.04.2012 13:46 12,4 C 56 % 1006,7 hPa 0,0 l/m 4,7 km/h (1 Bft) SO 135 3,9 C 12,4 C
14.04.2012 13:51 13,0 C 55 % 1006,7 hPa 0,0 l/m 3,2 km/h (1 Bft) O-SO 112 4,2 C 13,0 C
14.04.2012 13:56 13,3 C 54 % 1006,6 hPa 0,0 l/m 4,0 km/h (1 Bft) S-SO 157 4,2 C 13,3 C
14.04.2012 14:01 13,6 C 53 % 1006,8 hPa 0,0 l/m 4,7 km/h (1 Bft) O-NO 67 4,2 C 13,6 C
14.04.2012 14:06 13,9 C 52 % 1006,8 hPa 0,0 l/m 5,0 km/h (1 Bft) O-SO 112 4,2 C 13,9 C
14.04.2012 14:11 14,1 C 51 % 1006,7 hPa 0,0 l/m 6,5 km/h (2 Bft) O 90 4,1 C 14,1 C
14.04.2012 14:16 14,1 C 51 % 1006,7 hPa 0,0 l/m 4,7 km/h (1 Bft) O-NO 67 4,1 C 14,1 C
14.04.2012 14:21 13,9 C 50 % 1006,7 hPa 0,0 l/m 3,2 km/h (1 Bft) SO 135 3,7 C 13,9 C
14.04.2012 14:26 13,8 C 51 % 1006,6 hPa 0,0 l/m 6,1 km/h (2 Bft) O-NO 67 3,8 C 13,8 C
14.04.2012 14:31 13,7 C 51 % 1006,5 hPa 0,0 l/m 1,4 km/h (1 Bft) SO 135 3,8 C 13,7 C
14.04.2012 14:36 13,8 C 51 % 1006,5 hPa 0,0 l/m 8,3 km/h (2 Bft) O 90 3,8 C 13,8 C
14.04.2012 14:41 13,8 C 50 % 1006,5 hPa 0,0 l/m 2,5 km/h (1 Bft) S-SO 157 3,6 C 13,8 C
14.04.2012 14:46 14,1 C 51 % 1006,6 hPa 0,0 l/m 7,6 km/h (2 Bft) O-SO 112 4,1 C 14,1 C
14.04.2012 14:51 14,1 C 49 % 1006,6 hPa 0,0 l/m 5,0 km/h (1 Bft) O 90 3,6 C 14,1 C
14.04.2012 14:56 13,9 C 48 % 1006,5 hPa 0,0 l/m 7,2 km/h (2 Bft) O-NO 67 3,1 C 13,9 C
14.04.2012 15:01 13,8 C 47 % 1006,5 hPa 0,0 l/m 5,8 km/h (2 Bft) O-SO 112 2,7 C 13,8 C
14.04.2012 15:06 13,7 C 48 % 1006,5 hPa 0,0 l/m 2,5 km/h (1 Bft) O 90 2,9 C 13,7 C
14.04.2012 15:11 13,9 C 47 % 1006,5 hPa 0,0 l/m 3,2 km/h (1 Bft) O 90 2,8 C 13,9 C
14.04.2012 15:16 14,2 C 47 % 1006,5 hPa 0,0 l/m 1,4 km/h (1 Bft) SO 135 3,1 C 14,2 C
14.04.2012 15:21 14,5 C 47 % 1006,4 hPa 0,0 l/m 5,4 km/h (1 Bft) SO 135 3,3 C 14,5 C
14.04.2012 15:26 14,6 C 47 % 1006,3 hPa 0,0 l/m 7,2 km/h (2 Bft) O 90 3,4 C 14,6 C
14.04.2012 15:31 14,4 C 47 % 1006,4 hPa 0,0 l/m 12,2 km/h (2 Bft) O 90 3,2 C 14,4 C
14.04.2012 15:36 14,3 C 47 % 1006,3 hPa 0,0 l/m 9,4 km/h (2 Bft) O-NO 67 3,1 C 14,3 C
14.04.2012 15:41 14,1 C 48 % 1006,4 hPa 0,0 l/m 10,4 km/h (2 Bft) O 90 3,3 C 14,1 C
14.04.2012 15:46 14,0 C 47 % 1006,3 hPa 0,0 l/m 14,0 km/h (3 Bft) O 90 2,9 C 14,0 C
14.04.2012 15:51 13,9 C 47 % 1006,3 hPa 0,0 l/m 7,6 km/h (2 Bft) O 90 2,8 C 13,9 C
14.04.2012 15:56 14,0 C 47 % 1006,3 hPa 0,0 l/m 18,4 km/h (3 Bft) O-SO 112 2,9 C 14,0 C
14.04.2012 16:01 14,0 C 47 % 1006,4 hPa 0,0 l/m 7,9 km/h (2 Bft) O-NO 67 2,9 C 14,0 C
14.04.2012 16:06 14,1 C 47 % 1006,4 hPa 0,0 l/m 4,0 km/h (1 Bft) O 90 3,0 C 14,1 C
14.04.2012 16:11 14,1 C 47 % 1006,4 hPa 0,0 l/m 0,0 km/h (0 Bft) O 90 3,0 C 14,1 C
14.04.2012 16:16 13,9 C 47 % 1006,3 hPa 0,0 l/m 5,8 km/h (2 Bft) O 90 2,8 C 13,9 C
14.04.2012 16:21 13,8 C 47 % 1006,3 hPa 0,0 l/m 3,6 km/h (1 Bft) SO 135 2,7 C 13,8 C
14.04.2012 16:26 13,6 C 47 % 1006,2 hPa 0,0 l/m 4,3 km/h (1 Bft) O 90 2,5 C 13,6 C
14.04.2012 16:31 13,5 C 47 % 1006,2 hPa 0,0 l/m 6,1 km/h (2 Bft) O-NO 67 2,4 C 13,5 C
14.04.2012 16:36 13,4 C 48 % 1006,3 hPa 0,0 l/m 5,4 km/h (1 Bft) O 90 2,6 C 13,4 C
14.04.2012 16:41 13,3 C 48 % 1006,3 hPa 0,0 l/m 1,4 km/h (1 Bft) SO 135 2,5 C 13,3 C
14.04.2012 16:46 13,4 C 48 % 1006,2 hPa 0,0 l/m 1,4 km/h (1 Bft) SO 135 2,6 C 13,4 C
14.04.2012 16:51 13,4 C 48 % 1006,3 hPa 0,0 l/m 5,0 km/h (1 Bft) O-SO 112 2,6 C 13,4 C
14.04.2012 16:56 13,4 C 48 % 1006,3 hPa 0,0 l/m 2,2 km/h (1 Bft) S 180 2,6 C 13,4 C
14.04.2012 17:01 13,5 C 49 % 1006,2 hPa 0,0 l/m 3,2 km/h (1 Bft) SO 135 3,0 C 13,5 C
14.04.2012 17:06 13,6 C 49 % 1006,3 hPa 0,0 l/m 2,5 km/h (1 Bft) O-SO 112 3,1 C 13,6 C
14.04.2012 17:11 13,6 C 49 % 1006,2 hPa 0,0 l/m 4,7 km/h (1 Bft) O-SO 112 3,1 C 13,6 C
14.04.2012 17:16 13,9 C 48 % 1006,1 hPa 0,0 l/m 3,6 km/h (1 Bft) O-NO 67 3,1 C 13,9 C
14.04.2012 17:21 14,1 C 47 % 1006,2 hPa 0,0 l/m 2,9 km/h (1 Bft) O-SO 112 3,0 C 14,1 C
14.04.2012 17:26 14,3 C 45 % 1006,2 hPa 0,0 l/m 7,6 km/h (2 Bft) O 90 2,5 C 14,3 C
14.04.2012 17:31 14,2 C 45 % 1006,2 hPa 0,0 l/m 10,4 km/h (2 Bft) O-SO 112 2,4 C 14,2 C
14.04.2012 17:36 14,1 C 45 % 1006,2 hPa 0,0 l/m 5,8 km/h (2 Bft) O-NO 67 2,4 C 14,1 C
14.04.2012 17:41 13,9 C 45 % 1006,1 hPa 0,0 l/m 6,5 km/h (2 Bft) S-SO 157 2,2 C 13,9 C
14.04.2012 17:46 14,0 C 46 % 1006,2 hPa 0,0 l/m 7,2 km/h (2 Bft) O-SO 112 2,6 C 14,0 C
14.04.2012 17:51 14,1 C 45 % 1006,2 hPa 0,0 l/m 4,0 km/h (1 Bft) O-NO 67 2,4 C 14,1 C
14.04.2012 17:56 13,9 C 44 % 1006,0 hPa 0,0 l/m 7,9 km/h (2 Bft) O-NO 67 1,9 C 13,9 C
14.04.2012 18:01 13,9 C 44 % 1006,1 hPa 0,0 l/m 2,5 km/h (1 Bft) O 90 1,9 C 13,9 C
14.04.2012 18:06 13,9 C 44 % 1006,2 hPa 0,0 l/m 4,0 km/h (1 Bft) O-NO 67 1,9 C 13,9 C
14.04.2012 18:11 13,9 C 44 % 1006,1 hPa 0,0 l/m 3,6 km/h (1 Bft) O 90 1,9 C 13,9 C
14.04.2012 18:16 13,9 C 44 % 1006,1 hPa 0,0 l/m 9,0 km/h (2 Bft) O 90 1,9 C 13,9 C
14.04.2012 18:21 13,7 C 46 % 1006,0 hPa 0,0 l/m 4,0 km/h (1 Bft) O-NO 67 2,3 C 13,7 C
14.04.2012 18:26 13,5 C 47 % 1006,0 hPa 0,0 l/m 6,5 km/h (2 Bft) O-NO 67 2,4 C 13,5 C
14.04.2012 18:31 13,3 C 48 % 1006,1 hPa 0,0 l/m 8,6 km/h (2 Bft) O 90 2,5 C 13,3 C
14.04.2012 18:36 13,3 C 48 % 1006,3 hPa 0,0 l/m 3,6 km/h (1 Bft) O-NO 67 2,5 C 13,3 C
14.04.2012 18:41 13,1 C 49 % 1006,2 hPa 0,0 l/m 4,7 km/h (1 Bft) O-NO 67 2,6 C 13,1 C
14.04.2012 18:46 13,1 C 49 % 1006,1 hPa 0,0 l/m 6,1 km/h (2 Bft) NO 45 2,6 C 13,1 C
14.04.2012 18:51 13,1 C 49 % 1006,1 hPa 0,0 l/m 3,2 km/h (1 Bft) O 90 2,6 C 13,1 C
14.04.2012 18:56 12,9 C 49 % 1006,2 hPa 0,0 l/m 0,0 km/h (0 Bft) NO 45 2,5 C 12,9 C
14.04.2012 19:01 12,9 C 50 % 1006,1 hPa 0,0 l/m 9,0 km/h (2 Bft) O-SO 112 2,7 C 12,9 C
14.04.2012 19:06 12,9 C 50 % 1006,1 hPa 0,0 l/m 4,7 km/h (1 Bft) O-NO 67 2,7 C 12,9 C
14.04.2012 19:11 12,7 C 50 % 1006,1 hPa 0,0 l/m 5,0 km/h (1 Bft) O-NO 67 2,6 C 12,7 C
14.04.2012 19:16 12,6 C 51 % 1006,2 hPa 0,0 l/m 4,0 km/h (1 Bft) O-NO 67 2,7 C 12,6 C
14.04.2012 19:21 12,5 C 51 % 1006,2 hPa 0,0 l/m 4,0 km/h (1 Bft) O 90 2,6 C 12,5 C
14.04.2012 19:26 12,4 C 52 % 1006,2 hPa 0,0 l/m 4,3 km/h (1 Bft) NO 45 2,8 C 12,4 C
14.04.2012 19:31 12,2 C 52 % 1006,2 hPa 0,0 l/m 5,0 km/h (1 Bft) O-SO 112 2,6 C 12,2 C
14.04.2012 19:36 12,1 C 53 % 1006,2 hPa 0,0 l/m 4,7 km/h (1 Bft) NO 45 2,8 C 12,1 C
14.04.2012 19:41 11,9 C 53 % 1006,3 hPa 0,0 l/m 8,3 km/h (2 Bft) O-NO 67 2,6 C 11,9 C
14.04.2012 19:46 11,8 C 53 % 1006,3 hPa 0,0 l/m 3,6 km/h (1 Bft) O-NO 67 2,5 C 11,8 C
14.04.2012 19:51 11,6 C 53 % 1006,3 hPa 0,0 l/m 1,8 km/h (1 Bft) O 90 2,4 C 11,6 C
14.04.2012 19:56 11,5 C 54 % 1006,4 hPa 0,0 l/m 2,2 km/h (1 Bft) O-NO 67 2,5 C 11,5 C
14.04.2012 20:01 11,4 C 54 % 1006,5 hPa 0,0 l/m 2,5 km/h (1 Bft) O-NO 67 2,4 C 11,4 C
14.04.2012 20:06 11,3 C 54 % 1006,6 hPa 0,0 l/m 1,8 km/h (1 Bft) O-NO 67 2,3 C 11,3 C
14.04.2012 20:11 11,1 C 55 % 1006,6 hPa 0,0 l/m 1,1 km/h (1 Bft) O 90 2,4 C 11,1 C
14.04.2012 20:16 10,9 C 55 % 1006,6 hPa 0,0 l/m 2,5 km/h (1 Bft) O 90 2,2 C 10,9 C
14.04.2012 20:21 10,9 C 55 % 1006,8 hPa 0,0 l/m 1,8 km/h (1 Bft) O 90 2,2 C 10,9 C
14.04.2012 20:26 10,8 C 55 % 1006,9 hPa 0,0 l/m 0,0 km/h (0 Bft) O-NO 67 2,1 C 10,8 C
14.04.2012 20:31 10,6 C 56 % 1007,0 hPa 0,0 l/m 0,0 km/h (0 Bft) O-NO 67 2,2 C 10,6 C
14.04.2012 20:36 10,5 C 57 % 1007,0 hPa 0,0 l/m 0,0 km/h (0 Bft) O-NO 67 2,3 C 10,5 C
14.04.2012 20:41 10,4 C 58 % 1007,0 hPa 0,0 l/m 2,2 km/h (1 Bft) O-NO 67 2,5 C 10,4 C
14.04.2012 20:46 10,2 C 59 % 1007,1 hPa 0,0 l/m 0,0 km/h (0 Bft) O-NO 67 2,6 C 10,2 C
14.04.2012 20:51 10,1 C 59 % 1007,1 hPa 0,0 l/m 0,0 km/h (0 Bft) O-NO 67 2,5 C 10,1 C
14.04.2012 20:56 9,9 C 59 % 1007,1 hPa 0,0 l/m 5,8 km/h (2 Bft) O-NO 67 2,3 C 9,4 C
14.04.2012 21:01 9,8 C 59 % 1007,2 hPa 0,0 l/m 0,0 km/h (0 Bft) O-NO 67 2,2 C 9,8 C
14.04.2012 21:06 9,7 C 59 % 1007,3 hPa 0,0 l/m 1,4 km/h (1 Bft) O 90 2,1 C 9,7 C
14.04.2012 21:11 9,6 C 59 % 1007,2 hPa 0,0 l/m 2,2 km/h (1 Bft) O-NO 67 2,0 C 9,6 C
14.04.2012 21:16 9,5 C 59 % 1007,3 hPa 0,0 l/m 1,8 km/h (1 Bft) NO 45 1,9 C 9,5 C
14.04.2012 21:21 9,5 C 59 % 1007,3 hPa 0,0 l/m 1,4 km/h (1 Bft) O-NO 67 1,9 C 9,5 C
14.04.2012 21:26 9,4 C 60 % 1007,5 hPa 0,0 l/m 2,5 km/h (1 Bft) O 90 2,0 C 9,4 C
14.04.2012 21:31 9,3 C 60 % 1007,5 hPa 0,0 l/m 1,8 km/h (1 Bft) O-NO 67 1,9 C 9,3 C
14.04.2012 21:36 9,3 C 60 % 1007,5 hPa 0,0 l/m 3,2 km/h (1 Bft) O 90 1,9 C 9,3 C
14.04.2012 21:41 9,2 C 61 % 1007,5 hPa 0,0 l/m 2,2 km/h (1 Bft) NO 45 2,1 C 9,2 C
14.04.2012 21:46 9,1 C 61 % 1007,5 hPa 0,0 l/m 3,2 km/h (1 Bft) O 90 2,0 C 9,1 C
14.04.2012 21:51 9,0 C 62 % 1007,4 hPa 0,0 l/m 3,6 km/h (1 Bft) O 90 2,1 C 9,0 C
14.04.2012 21:56 8,9 C 62 % 1007,4 hPa 0,0 l/m 4,3 km/h (1 Bft) O-SO 112 2,0 C 8,9 C
14.04.2012 22:01 8,9 C 62 % 1007,5 hPa 0,0 l/m 3,2 km/h (1 Bft) O-NO 67 2,0 C 8,9 C
14.04.2012 22:06 8,9 C 62 % 1007,5 hPa 0,0 l/m 2,2 km/h (1 Bft) O-NO 67 2,0 C 8,9 C
14.04.2012 22:11 8,8 C 62 % 1007,6 hPa 0,0 l/m 3,2 km/h (1 Bft) O 90 1,9 C 8,8 C
14.04.2012 22:16 8,8 C 62 % 1007,6 hPa 0,0 l/m 1,4 km/h (1 Bft) O 90 1,9 C 8,8 C
14.04.2012 22:21 8,6 C 63 % 1007,6 hPa 0,0 l/m 1,4 km/h (1 Bft) O 90 2,0 C 8,6 C
14.04.2012 22:26 8,5 C 63 % 1007,4 hPa 0,0 l/m 3,6 km/h (1 Bft) O 90 1,9 C 8,5 C
14.04.2012 22:31 8,4 C 63 % 1007,5 hPa 0,0 l/m 4,7 km/h (1 Bft) O-NO 67 1,8 C 8,0 C
14.04.2012 22:36 8,3 C 64 % 1007,6 hPa 0,0 l/m 3,6 km/h (1 Bft) O-NO 67 1,9 C 8,3 C
14.04.2012 22:41 8,2 C 64 % 1007,7 hPa 0,0 l/m 5,4 km/h (1 Bft) O-NO 67 1,8 C 7,6 C
14.04.2012 22:46 8,1 C 65 % 1007,4 hPa 0,0 l/m 2,9 km/h (1 Bft) O 90 1,9 C 8,1 C
14.04.2012 22:51 8,1 C 65 % 1007,5 hPa 0,0 l/m 4,3 km/h (1 Bft) O-NO 67 1,9 C 8,1 C
14.04.2012 22:56 8,1 C 65 % 1007,6 hPa 0,0 l/m 3,6 km/h (1 Bft) O-NO 67 1,9 C 8,1 C
14.04.2012 23:01 8,0 C 66 % 1007,7 hPa 0,0 l/m 4,0 km/h (1 Bft) O-NO 67 2,0 C 8,0 C
14.04.2012 23:06 7,9 C 66 % 1007,8 hPa 0,0 l/m 1,4 km/h (1 Bft) O-NO 67 1,9 C 7,9 C
14.04.2012 23:11 7,9 C 66 % 1007,7 hPa 0,0 l/m 3,2 km/h (1 Bft) O-NO 67 1,9 C 7,9 C
14.04.2012 23:16 7,9 C 66 % 1007,8 hPa 0,0 l/m 5,0 km/h (1 Bft) O 90 1,9 C 7,4 C
14.04.2012 23:21 7,9 C 66 % 1007,9 hPa 0,0 l/m 5,8 km/h (2 Bft) O-NO 67 1,9 C 7,1 C
14.04.2012 23:26 7,9 C 66 % 1007,9 hPa 0,0 l/m 0,0 km/h (0 Bft) O 90 1,9 C 7,9 C
14.04.2012 23:31 7,8 C 66 % 1007,9 hPa 0,0 l/m 3,6 km/h (1 Bft) O-NO 67 1,9 C 7,8 C
14.04.2012 23:36 7,8 C 67 % 1008,0 hPa 0,0 l/m 2,2 km/h (1 Bft) O-NO 67 2,1 C 7,8 C
14.04.2012 23:41 7,6 C 67 % 1007,9 hPa 0,0 l/m 3,2 km/h (1 Bft) O-NO 67 1,9 C 7,6 C
14.04.2012 23:46 7,6 C 67 % 1008,0 hPa 0,0 l/m 7,6 km/h (2 Bft) O 90 1,9 C 6,3 C
14.04.2012 23:51 7,6 C 67 % 1007,9 hPa 0,0 l/m 2,5 km/h (1 Bft) O-NO 67 1,9 C 7,6 C
14.04.2012 23:56 7,6 C 67 % 1008,0 hPa 0,0 l/m 2,2 km/h (1 Bft) O-NO 67 1,9 C 7,6 C
_ Min-Zeit 06:06 17:56 17:56 - 00:01 - - 06:06 06:31
Minimum _ 1,5 C 44 % 1006,0 hPa - 0,0 km/h (0 Bft) - - -0,9 C 0,1 C
_ Max-Zeit 15:26 07:56 23:36 00:01 15:56 - - 09:56 15:26
Maximum _ 14,6 C 87 % 1008,0 hPa 0,0 l/m 18,4 km/h
O-SO (3 Bft)
- - 5,6 C 14,6 C
Durchschnitt _ 8,4 C 67 % 1006,7 hPa #0,0 l/m 2,8 km/h (1 Bft) O - 2,1 C 8,3 C
(c) by David Heller